• Join FlightAware (Why Join?)
  • Login
  • US Flag 
02:05AM EDT


 

Airport Tracker/Info


-or-


 

Live Flight TrackerFlight Track Log ✈ AWE1253 ✈ 16-Jun-2013 ✈ KPHL - KTPA

Flight Track Log - Related Links

Times and Time Zones

All times are in EDT time to prevent confusion due to time zone crossing. See the AWE1253 flight status page for this flight to view local times or setup timezone preferences in your user account.

Time Position Orientation Groundspeed Altitude Reporting Facility
EDT Latitude Longitude Course Direction KTS MPH feet Rate Location/Type
09:07PM 39.8667 -75.2833 191° South 184 212 900  Level Philadelphia TRACON
09:08PM 39.8000 -75.3333 210° Southwest 230 265 3,800 2,520 Climbing Philadelphia TRACON
09:10PM 39.4131 -75.3356 185° South  Level FlightAware Approximate
09:10PM 39.6508 -75.3569 187° South 295 339 9,300  Level Washington Center
09:11PM 39.2938 -75.3488 185° South  Level FlightAware Approximate
09:11PM 39.5633 -75.3628 183° South 295 339 11,100  Level Washington Center
09:12PM 39.1766 -75.3683 191° South  Level FlightAware Approximate
09:12PM 39.4653 -75.3658 181° South 322 371 13,800  Level Washington Center
09:13PM 39.3675 -75.3714 183° South 344 396 16,000 1,560 Climbing Washington Center
09:14PM 39.2633 -75.3744 181° South 367 422 17,000 540 Climbing Washington Center
09:15PM 39.1611 -75.3747 180° South 373 429 17,100 960 Climbing Washington Center
09:16PM 39.0569 -75.3750 180° South 373 429 19,000 1,920 Climbing Washington Center
09:17PM 38.9506 -75.3808 182° South 380 437 21,000 1,980 Climbing Washington Center
09:18PM 38.8444 -75.4050 190° South 386 444 23,000 1,680 Climbing Washington Center
09:19PM 38.7339 -75.4319 191° South 391 450 24,400 1,320 Climbing Washington Center
09:20PM 38.6214 -75.4561 190° South 401 461 25,700 1,320 Climbing Washington Center
09:21PM 38.5047 -75.4775 188° South 413 475 27,100 1,320 Climbing Washington Center
09:22PM 38.3900 -75.5097 192° South 418 481 28,400 1,140 Climbing Washington Center
09:23PM 38.2753 -75.5389 191° South 423 487 29,500 780 Climbing Washington Center
09:24PM 38.1628 -75.5892 199° South 428 493 30,000 240 Climbing Washington Center
09:25PM 38.0522 -75.6392 200° South 433 498 30,000  Level Washington Center
09:26PM 37.9417 -75.6919 201° Southwest 433 498 30,000  Level Washington Center
09:27PM 37.8269 -75.7417 199° South 428 493 30,000  Level Washington Center
09:28PM 37.7119 -75.7861 197° South 428 493 30,000  Level Washington Center
09:29PM 37.6014 -75.8356 200° South 428 493 30,000  Level Washington Center
09:30PM 37.4908 -75.8875 200° South 428 493 30,000  Level Washington Center
09:31PM 37.3800 -75.9472 203° Southwest 428 493 30,000 -60 Level Washington Center
09:32PM 37.2714 -76.0042 203° Southwest 433 498 29,900  Descending Washington Center
09:33PM 37.1564 -76.0661 203° Southwest 438 504 30,000  Climbing Washington Center
09:34PM 37.0478 -76.1228 203° Southwest 438 504 30,000  Level Washington Center
09:35PM 36.9308 -76.1792 201° Southwest 445 512 30,000  Level Washington Center
09:36PM 36.8281 -76.2536 210° Southwest 445 512 30,000  Level Washington Center
09:37PM 36.7336 -76.3408 217° Southwest 433 498 30,000  Level Washington Center
09:38PM 36.6497 -76.4256 219° Southwest 433 498 30,000  Level Washington Center
09:39PM 36.5531 -76.5100 215° Southwest 433 498 30,000  Level Washington Center
09:40PM 36.4586 -76.5967 216° Southwest 433 498 30,000  Level Washington Center
09:41PM 36.3639 -76.6806 216° Southwest 428 493 30,000  Level Washington Center
09:42PM 36.2692 -76.7667 216° Southwest 428 493 30,000  Level Washington Center
09:43PM 36.1725 -76.8503 215° Southwest 434 499 30,000  Level Washington Center
09:44PM 36.0775 -76.9361 216° Southwest 429 494 30,000  Level Washington Center
09:45PM 35.9806 -77.0217 216° Southwest 429 494 30,000 -60 Level Washington Center
09:46PM 35.8856 -77.1097 217° Southwest 429 494 29,900  Descending Washington Center
09:47PM 35.7822 -77.1975 215° Southwest 422 486 30,000  Climbing Washington Center
09:48PM 35.6850 -77.2850 216° Southwest 427 491 30,000  Level Washington Center
09:49PM 35.5878 -77.3697 215° Southwest 432 497 30,000  Level Washington Center
09:50PM 35.4906 -77.4569 216° Southwest 432 497 30,000  Level Washington Center
09:51PM 35.3933 -77.5386 214° Southwest 432 497 30,000  Level Washington Center
09:52PM 35.2978 -77.6331 219° Southwest 432 497 30,000  Level Washington Center
09:53PM 35.2064 -77.7272 220° Southwest 438 504 30,000  Level Washington Center
09:54PM 35.1131 -77.8214 220° Southwest 438 504 30,000  Level Washington Center
09:55PM 35.0319 -77.9053 220° Southwest 438 504 30,000  Level Washington Center
09:56PM 34.9406 -78.0014 221° Southwest 438 504 30,000  Level Washington Center
09:57PM 34.8467 -78.0950 219° Southwest 438 504 30,000  Level Washington Center
09:58PM 34.7506 -78.2033 223° Southwest 432 497 30,000  Level Washington Center
09:59PM 34.6586 -78.2961 220° Southwest 427 491 30,000 -60 Level Washington Center
10:01PM 34.5292 -78.4269 220° Southwest 430 495 29,900  Descending Jacksonville Center
10:02PM 34.4267 -78.5328 220° Southwest 443 510 30,000  Climbing Jacksonville Center
10:03PM 34.3361 -78.6303 222° Southwest 443 510 29,900  Descending Jacksonville Center
10:04PM 34.2472 -78.7228 221° Southwest 438 504 30,000  Climbing Jacksonville Center
10:05PM 34.1589 -78.8222 223° Southwest 438 504 30,000  Level Jacksonville Center
10:06PM 34.0681 -78.9167 221° Southwest 433 498 30,000  Level Jacksonville Center
10:07PM 33.9792 -79.0133 222° Southwest 433 498 30,000  Level Jacksonville Center
10:08PM 33.8903 -79.1050 221° Southwest 433 498 30,000  Level Jacksonville Center
10:09PM 33.7992 -79.2039 222° Southwest 433 498 30,000  Level Jacksonville Center
10:10PM 33.7061 -79.3075 223° Southwest 433 498 30,000  Level Jacksonville Center
10:11PM 33.6150 -79.4036 221° Southwest 427 491 30,000  Level Jacksonville Center
10:12PM 33.5236 -79.4994 221° Southwest 432 497 30,000  Level Jacksonville Center
10:13PM 33.4322 -79.5950 221° Southwest 437 503 30,000  Level Jacksonville Center
10:14PM 33.3603 -79.7119 234° Southwest 432 497 30,000  Level Jacksonville Center
10:15PM 33.2942 -79.8311 236° Southwest 438 504 30,000  Level Jacksonville Center
10:16PM 33.2264 -79.9550 237° Southwest 443 510 30,000  Level Jacksonville Center
10:17PM 33.1556 -80.0642 232° Southwest 443 510 30,000  Level Jacksonville Center
10:18PM 33.0578 -80.1639 221° Southwest 454 522 30,000  Level Jacksonville Center
10:19PM 32.9656 -80.2533 219° Southwest 444 511 30,000  Level Jacksonville Center
10:20PM 32.8778 -80.3375 219° Southwest 447 514 30,000  Level Jacksonville Center
10:21PM 32.7814 -80.4292 219° Southwest 447 514 30,000  Level Jacksonville Center
10:22PM 32.6850 -80.5206 219° Southwest 442 509 30,000  Level Jacksonville Center
10:23PM 32.5886 -80.6144 219° Southwest 442 509 30,000  Level Jacksonville Center
10:24PM 32.4942 -80.7053 219° Southwest 442 509 30,000  Level Jacksonville Center
10:25PM 32.3997 -80.7961 219° Southwest 442 509 30,000  Level Jacksonville Center
10:26PM 32.2950 -80.8969 219° Southwest 442 509 30,000  Level Jacksonville Center
10:27PM 32.2003 -80.9875 219° Southwest 442 509 30,000  Level Jacksonville Center
10:28PM 32.1056 -81.0728 217° Southwest 450 518 30,000  Level Jacksonville Center
10:29PM 32.0108 -81.1653 220° Southwest 455 524 30,000  Level Jacksonville Center
10:30PM 31.9117 -81.2553 218° Southwest 460 529 30,000  Level Jacksonville Center
10:31PM 31.8167 -81.3475 220° Southwest 444 511 30,000  Level Jacksonville Center
10:32PM 31.7114 -81.4469 219° Southwest 444 511 30,000  Level Jacksonville Center
10:33PM 31.6225 -81.5286 218° Southwest 449 517 30,000  Level Jacksonville Center
10:34PM 31.5150 -81.6278 218° Southwest 449 517 30,000  Level Jacksonville Center
10:35PM 31.4200 -81.7167 219° Southwest 454 522 30,000  Level Jacksonville Center
10:36PM 31.3267 -81.8031 218° Southwest 462 532 30,000  Level Jacksonville Center
10:37PM 31.2314 -81.8917 219° Southwest 462 532 30,000  Level Jacksonville Center
10:38PM 31.1339 -81.9825 219° Southwest 462 532 30,000  Level Jacksonville Center
10:39PM 31.0344 -82.0731 218° Southwest 457 526 30,000  Level Jacksonville Center
10:40PM 30.9367 -82.1611 218° Southwest 457 526 30,000  Level Jacksonville Center
10:41PM 30.8411 -82.2489 218° Southwest 457 526 30,000  Level Jacksonville Center
10:42PM 30.7456 -82.3367 218° Southwest 452 520 30,000  Level Jacksonville Center
10:43PM 30.6478 -82.4242 218° Southwest 452 520 30,000  Level Jacksonville Center
10:44PM 30.5458 -82.5067 215° Southwest 452 520 30,000  Level Jacksonville Center
10:45PM 30.4333 -82.5939 214° Southwest 452 520 30,000  Level Jacksonville Center
10:46PM 30.3228 -82.6472 203° Southwest 435 501 30,000  Level Jacksonville Center
10:47PM 30.1975 -82.6692 189° South 441 507 30,000  Level Jacksonville Center
10:48PM 30.0722 -82.6908 189° South 446 513 30,000  Level Jacksonville Center
10:49PM 29.9469 -82.7175 190° South 456 525 30,000  Level Jacksonville Center
10:50PM 29.8217 -82.7417 190° South 456 525 30,000  Level Jacksonville Center
10:51PM 29.6986 -82.7658 190° South 456 525 30,000  Level Jacksonville Center
10:52PM 29.5714 -82.7922 190° South 462 532 30,000  Level Jacksonville Center
10:53PM 29.4564 -82.8092 187° South 470 541 30,000 -60 Level Jacksonville Center
10:54PM 29.3292 -82.8331 189° South 465 535 29,900 -600 Descending Jacksonville Center
10:55PM 29.2081 -82.8569 190° South 455 524 28,800 -1,800 Descending Jacksonville Center
10:56PM 29.0869 -82.8783 189° South 450 518 26,400 -2,400 Descending Jacksonville Center
10:57PM 28.9722 -82.9019 190° South 443 510 24,000 -2,640 Descending Jacksonville Center
10:58PM 28.8594 -82.9211 188° South 432 497 21,200 -2,700 Descending Jacksonville Center
11:00PM 28.5833 -82.9667 188° South 388 447 15,100 -2,580 Descending Tampa TRACON
11:01PM 28.5000 -82.8833 139° Southeast 380 437 12,700 -2,040 Descending Tampa TRACON
11:02PM 28.4333 -82.8167 139° Southeast 354 407 11,100 -1,620 Descending Tampa TRACON
11:03PM 28.3667 -82.7500 139° Southeast 312 359 9,500 -1,800 Descending Tampa TRACON
11:04PM 28.3167 -82.6833 130° Southeast 295 339 7,500 -2,040 Descending Tampa TRACON
11:05PM 28.2500 -82.6333 147° Southeast 282 325 5,500 -2,040 Descending Tampa TRACON
11:06PM 28.2000 -82.5667 130° Southeast 271 312 3,400 -2,100 Descending Tampa TRACON